Latest Weather Observations for Williamtown

IDN60901

Issued at 8:41 pm EDT Sunday 29 March 2020 (issued every 10 minutes, with the page automatically refreshed every 10 minutes)

About weather observations | Map of Sydney area stations | Latest observations for Sydney area | Other Formats
Station Details ID: 061078 Name: WILLIAMTOWN RAAF Lat: -32.79 Lon: 151.84 Height: 7.5 m
Data from the previous 72 hours. | See also: Recent months at Williamtown
Date/Time
EDT
Temp
°C
App
Temp
°C
Dew
Point
°C
Rel
Hum
%
Delta-T
°C
Wind Press
QNH
hPa
Press
MSL
hPa
Rain since
9am
mm
Dir  Spd
km/h
Gust
km/h
Spd
kts
Gust
kts
29/08:30pm 21.2 21.0 17.6 80 2.2 NE 15 20 8 11 1017.1 1017.0 0.0
29/08:00pm 21.4 21.7 17.8 80 2.2 NE 13 17 7 9 1016.9 1016.8 0.0
29/07:30pm 21.9 21.8 17.9 78 2.5 NE 15 24 8 13 1016.8 1016.7 0.0
29/07:00pm 22.5 22.1 18.1 76 2.7 NE 17 26 9 14 1016.6 1016.5 0.0
29/06:30pm 23.3 21.9 18.0 72 3.3 NE 22 32 12 17 1016.5 1016.4 0.0
29/06:00pm 24.3 22.6 18.0 68 3.9 ENE 24 33 13 18 1016.3 1016.2 0.0
29/05:30pm 24.8 23.2 18.3 67 4.1 ENE 24 33 13 18 1016.4 1016.3 0.0
29/05:00pm 25.3 24.4 18.2 64 4.5 ENE 20 28 11 15 1016.2 1016.1 0.0
29/04:30pm 25.3 24.7 18.5 66 4.3 ENE 19 28 10 15 1016.3 1016.2 0.0
29/04:00pm 25.6 25.3 18.3 64 4.6 NE 17 26 9 14 1016.6 1016.5 0.0
29/03:30pm 25.2 24.2 17.9 64 4.6 ENE 20 28 11 15 1016.9 1016.8 0.0
29/03:00pm 25.2 24.7 17.9 64 4.6 NE 17 28 9 15 1017.0 1016.9 0.0
29/02:30pm 26.2 26.0 17.6 59 5.4 NE 15 20 8 11 1017.3 1017.2 0.0
29/02:00pm 25.7 25.8 17.4 60 5.2 NE 13 20 7 11 1017.7 1017.6 0.0
29/01:30pm 25.3 24.9 16.2 57 5.6 NE 13 22 7 12 1018.4 1018.3 0.0
29/01:00pm 25.9 25.7 17.5 59 5.2 N 15 24 8 13 1019.1 1019.0 0.0
29/12:30pm 25.6 26.5 18.5 65 4.5 N 11 19 6 10 1019.5 1019.4 0.0
29/12:00pm 24.5 24.3 17.7 66 4.2 NNE 15 20 8 11 1019.9 1019.8 0.0
29/11:30am 24.1 22.4 17.1 65 4.3 NNE 22 32 12 17 1020.0 1019.9 0.0
29/11:00am 23.7 22.2 16.7 65 4.3 NNE 20 32 11 17 1020.3 1020.2 0.0
29/10:30am 23.5 21.9 17.5 69 3.7 NE 22 33 12 18 1020.4 1020.3 0.0
29/10:00am 22.2 20.9 17.3 74 3.0 NE 20 30 11 16 1020.5 1020.4 0.0
29/09:30am 21.5 20.8 17.3 77 2.6 NE 17 28 9 15 1020.5 1020.4 0.0
29/09:00am 20.7 21.0 17.9 84 1.7 NE 13 19 7 10 1020.5 1020.4 8.4
29/08:30am 19.7 20.4 18.0 90 1.0 ENE 11 15 6 8 1020.4 1020.3 8.4
29/08:00am 19.1 20.2 17.9 93 0.7 ENE 9 11 5 6 1020.3 1020.2 8.4
29/07:30am 18.4 19.2 17.4 94 0.6 NE 9 11 5 6 1019.9 1019.8 8.4
29/07:00am 18.6 18.7 17.4 93 0.7 ENE 13 19 7 10 1019.8 1019.7 8.4
29/06:30am 18.7 18.6 17.9 95 0.5 NE 15 26 8 14 1019.6 1019.5 8.4
29/06:00am 18.5 19.5 17.7 95 0.5 NE 9 13 5 7 1019.5 1019.4 8.4
29/05:30am 18.6 19.6 17.8 95 0.5 NNE 9 13 5 7 1019.4 1019.3 8.2
29/05:00am 18.7 20.2 18.0 96 0.4 NE 7 11 4 6 1019.4 1019.3 8.2
29/04:30am 18.8 20.3 18.1 96 0.4 NE 7 9 4 5 1019.5 1019.4 8.2
29/04:17am 18.8 19.9 18.1 96 0.4 NE 9 15 5 8 1019.7 1019.6 8.2
29/04:02am 18.8 19.6 18.1 96 0.4 ENE 11 15 6 8 1019.9 1019.8 8.2
29/04:00am 18.8 19.6 18.1 96 0.4 ENE 11 17 6 9 1020.0 1019.9 8.2
29/03:58am 18.8 19.2 18.1 96 0.4 ENE 13 17 7 9 1020.0 1019.9 8.2
29/03:37am 18.5 19.6 17.9 96 0.4 NE 9 15 5 8 1020.1 1020.0 7.6
29/03:30am 18.4 19.8 17.8 96 0.4 NNE 7 11 4 6 1020.0 1019.9 7.6
29/03:00am 18.1 20.2 17.3 95 0.5 NNE 2 7 1 4 1020.0 1019.9 7.6
29/02:30am 18.4 19.6 17.4 94 0.6 E 7 11 4 6 1020.3 1020.2 7.6
29/02:00am 18.3 20.8 17.3 94 0.6 CALM 0 0 0 0 1020.7 1020.6 7.6
29/01:30am 18.7 21.3 17.5 93 0.7 CALM 0 6 0 3 1021.0 1020.9 7.6
29/01:00am 18.9 19.8 17.6 92 0.8 NE 9 11 5 6 1021.3 1021.2 7.6
29/12:30am 18.7 20.2 17.7 94 0.6 NNE 6 11 3 6 1021.6 1021.5 7.6
29/12:00am 18.5 20.3 17.5 94 0.6 N 4 7 2 4 1021.8 1021.7 7.6
 
Date/Time
EDT
Temp
°C
App
Temp
°C
Dew
Point
°C
Rel
Hum
%
Delta-T
°C
Wind Press
QNH
hPa
Press
MSL
hPa
Rain since
9am
mm
Dir  Spd
km/h
Gust
km/h
Spd
kts
Gust
kts
28/11:30pm 18.4 20.9 17.2 93 0.7 CALM 0 2 0 1 1021.9 1021.8 7.6
28/11:00pm 18.7 20.7 17.0 90 1.0 NE 2 7 1 4 1022.0 1021.9 7.6
28/10:30pm 18.9 20.0 17.0 89 1.1 ENE 7 9 4 5 1022.1 1022.0 7.6
28/10:00pm 19.4 19.4 17.2 87 1.3 NE 13 20 7 11 1022.2 1022.1 7.6
28/09:30pm 19.2 18.9 17.3 89 1.2 ENE 15 28 8 15 1022.0 1021.9 7.6
28/09:00pm 19.3 18.8 17.8 91 0.9 ENE 17 24 9 13 1022.0 1021.9 7.6
28/08:30pm 19.4 22.3 18.1 92 0.8 CALM 0 0 0 0 1021.9 1021.8 7.4
28/08:00pm 19.4 20.8 17.9 91 0.9 E 7 9 4 5 1021.9 1021.8 7.4
28/07:30pm 19.3 20.9 17.8 91 0.9 ENE 6 9 3 5 1021.7 1021.6 7.4
28/07:00pm 19.5 20.4 17.6 89 1.2 ENE 9 15 5 8 1021.7 1021.6 7.4
28/06:30pm 19.6 19.7 17.4 87 1.3 ENE 13 19 7 10 1021.6 1021.5 7.4
28/06:00pm 19.8 18.5 16.8 83 1.8 ENE 19 26 10 14 1021.4 1021.3 7.4
28/05:30pm 20.5 18.8 17.1 81 2.1 ENE 22 30 12 16 1021.1 1021.0 7.4
28/05:00pm 21.1 20.4 18.3 84 1.7 E 19 28 10 15 1021.0 1020.9 7.4
28/04:30pm 21.1 20.6 17.9 82 2.0 ENE 17 26 9 14 1021.2 1021.1 7.4
28/04:24pm 21.3 21.1 18.5 84 1.8 ENE 17 30 9 16 1021.3 1021.2 7.4
28/04:05pm 20.9 20.7 18.5 86 1.5 ENE 17 28 9 15 1021.4 1021.3 7.4
28/04:00pm 20.9 20.7 18.5 86 1.5 ENE 17 26 9 14 1021.4 1021.3 7.4
28/03:41pm 21.0 20.9 18.8 87 1.4 ENE 17 28 9 15 1021.6 1021.5 7.4
28/03:30pm 20.5 21.0 19.2 92 0.8 ENE 15 22 8 12 1021.7 1021.6 7.4
28/03:12pm 20.1 21.5 19.6 97 0.3 E 11 15 6 8 1021.9 1021.8 7.4
28/03:00pm 19.5 19.5 19.0 97 0.3 ESE 17 28 9 15 1022.0 1021.9 7.0
28/02:30pm 19.8 20.3 19.3 97 0.3 SE 15 19 8 10 1022.5 1022.4 3.8
28/02:00pm 19.5 19.4 18.7 95 0.5 S 17 24 9 13 1022.6 1022.5 0.8
28/01:36pm 19.5 19.2 18.3 93 0.7 SSE 17 24 9 13 1023.0 1022.9 0.4
28/01:30pm 19.7 19.6 18.7 94 0.6 SSE 17 22 9 12 1023.2 1023.1 0.4
28/01:15pm 19.2 18.6 17.5 90 1.0 SSE 17 22 9 12 1023.5 1023.4 0.2
28/01:13pm 19.7 19.1 18.4 92 0.8 SSE 19 24 10 13 1023.6 1023.5 0.2
28/01:10pm 19.8 19.2 18.5 92 0.8 SSE 19 24 10 13 1023.6 1023.5 0.2
28/01:00pm 19.3 17.9 18.0 92 0.8 SSE 22 26 12 14 1023.9 1023.8 0.2
28/12:37pm 19.2 18.7 17.9 92 0.8 ESE 17 22 9 12 1024.3 1024.2 0.2
28/12:30pm 19.3 19.0 17.3 88 1.2 ESE 15 22 8 12 1024.4 1024.3 0.2
28/12:01pm 19.7 19.7 16.2 80 2.1 ESE 11 15 6 8 1024.7 1024.6 0.2
28/12:00pm 20.0 20.1 16.4 80 2.2 ESE 11 15 6 8 1024.7 1024.6 0.2
28/11:30am 20.0 19.2 16.0 78 2.4 ESE 15 19 8 10 1024.8 1024.7 0.2
28/11:00am 19.3 20.5 17.3 88 1.2 E 7 11 4 6 1025.0 1024.9 0.2
28/10:39am 18.9 19.0 16.5 86 1.4 E 11 17 6 9 1025.1 1025.0 0.0
28/10:30am 18.8 19.7 16.0 84 1.7 N 6 9 3 5 1025.1 1025.0 0.0
28/10:00am 17.7 19.3 16.0 90 1.0 NW 2 6 1 3 1025.1 1025.0 0.0
28/09:30am 16.9 16.8 15.9 94 0.6 WNW 11 15 6 8 1025.0 1024.9 0.0
28/09:00am 16.3 16.1 15.7 96 0.3 NW 11 13 6 7 1025.0 1024.9 0.0
28/08:30am 15.4 15.4 15.1 98 0.2 NW 9 13 5 7 1024.7 1024.6 0.0
28/08:00am 14.8 14.9 14.5 98 0.2 WNW 7 9 4 5 1024.4 1024.3 0.0
28/07:30am 14.5 14.7 14.2 98 0.2 WNW 6 7 3 4 1024.3 1024.2 0.0
28/07:00am 14.1 13.6 13.8 98 0.2 WNW 9 11 5 6 1024.2 1024.1 0.0
28/06:30am 13.9 13.0 13.6 98 0.2 WNW 11 11 6 6 1023.9 1023.8 0.0
28/06:00am 13.3 12.5 13.0 98 0.2 WNW 9 11 5 6 1023.5 1023.4 0.0
28/05:30am 13.2 12.3 12.7 97 0.3 WNW 9 9 5 5 1023.5 1023.4 0.0
28/05:00am 13.5 13.1 13.0 97 0.3 WNW 7 9 4 5 1023.4 1023.3 0.0
28/04:30am 12.9 11.8 12.1 95 0.4 NW 9 9 5 5 1023.4 1023.3 0.0
28/04:00am 13.7 13.3 13.1 96 0.3 NW 7 7 4 4 1023.5 1023.4 0.0
28/03:30am 13.9 13.8 13.3 96 0.3 NW 6 7 3 4 1023.6 1023.5 0.0
28/03:00am 13.9 14.9 13.1 95 0.4 CALM 0 0 0 0 1023.9 1023.8 0.0
28/02:30am 14.1 13.8 13.3 95 0.4 NW 7 7 4 4 1024.1 1024.0 0.0
28/02:00am 14.0 15.0 13.1 94 0.5 CALM 0 0 0 0 1024.4 1024.3 0.0
28/01:30am 14.5 15.6 13.5 94 0.6 CALM 0 0 0 0 1024.5 1024.4 0.0
28/01:00am 14.9 16.1 13.9 94 0.6 CALM 0 0 0 0 1024.6 1024.5 0.0
28/12:30am 16.0 17.6 15.0 94 0.6 CALM 0 0 0 0 1024.9 1024.8 0.0
28/12:00am 16.3 17.9 15.0 92 0.7 CALM 0 0 0 0 1025.3 1025.2 0.0
 
Date/Time
EDT
Temp
°C
App
Temp
°C
Dew
Point
°C
Rel
Hum
%
Delta-T
°C
Wind Press
QNH
hPa
Press
MSL
hPa
Rain since
9am
mm
Dir  Spd
km/h
Gust
km/h
Spd
kts
Gust
kts
27/11:30pm 17.6 19.4 15.6 88 1.2 CALM 0 0 0 0 1025.5 1025.4 0.0
27/11:00pm 18.1 18.9 15.9 87 1.3 NNW 6 7 3 4 1025.7 1025.6 0.0
27/10:30pm 17.2 18.9 15.2 88 1.2 CALM 0 0 0 0 1025.8 1025.7 0.0
27/10:00pm 18.2 18.8 15.3 83 1.7 N 6 7 3 4 1025.7 1025.6 0.0
27/09:30pm 19.2 19.7 15.1 77 2.4 ESE 6 9 3 5 1025.7 1025.6 0.0
27/09:00pm 19.7 19.8 15.4 76 2.5 ESE 9 11 5 6 1025.6 1025.5 0.0
27/08:30pm 20.1 20.1 15.1 73 2.9 ENE 9 11 5 6 1025.3 1025.2 0.0
27/08:00pm 20.2 20.5 15.0 72 3.0 E 7 11 4 6 1025.0 1024.9 0.0
27/07:30pm 20.2 20.0 14.6 70 3.3 SE 9 9 5 5 1024.7 1024.6 0.0
27/07:00pm 20.4 20.0 14.1 67 3.6 SE 9 11 5 6 1024.6 1024.5 0.0
27/06:30pm 20.5 18.0 14.2 67 3.7 SE 20 26 11 14 1024.6 1024.5 0.0
27/06:00pm 21.9 19.6 13.0 57 5.1 S 17 22 9 12 1024.3 1024.2 0.0
27/05:30pm 22.2 19.2 12.7 55 5.4 SSE 20 26 11 14 1024.3 1024.2 0.0
27/05:00pm 22.3 19.7 13.1 56 5.3 S 19 26 10 14 1024.3 1024.2 0.0
27/04:30pm 22.4 19.4 12.6 54 5.6 SSE 20 28 11 15 1024.3 1024.2 0.0
27/04:00pm 22.7 19.8 12.9 54 5.6 SSE 20 30 11 16 1024.4 1024.3 0.0
27/03:30pm 22.5 19.5 13.8 58 5.1 SSE 22 30 12 16 1024.6 1024.5 0.0
27/03:00pm 23.4 20.7 14.7 58 5.1 SE 22 35 12 19 1024.7 1024.6 0.0
27/02:30pm 22.6 20.2 12.8 54 5.6 ESE 17 28 9 15 1024.9 1024.8 0.0
27/02:00pm 22.9 20.7 13.4 55 5.5 SE 17 22 9 12 1025.2 1025.1 0.0
27/01:30pm 22.8 20.1 13.0 54 5.6 SE 19 30 10 16 1025.5 1025.4 0.0
27/01:00pm 23.0 20.2 13.2 54 5.6 SE 20 30 11 16 1025.9 1025.8 0.0
27/12:30pm 22.4 19.1 11.5 50 6.1 SE 20 30 11 16 1026.2 1026.1 0.0
27/12:00pm 22.8 19.9 13.0 54 5.6 ESE 20 30 11 16 1026.4 1026.3 0.0
27/11:30am 22.3 19.5 13.1 56 5.3 ESE 20 28 11 15 1026.5 1026.4 0.0
27/11:00am 22.7 20.6 13.5 56 5.3 ESE 17 26 9 14 1026.7 1026.6 0.0
27/10:30am 22.3 20.0 14.2 60 4.7 ESE 19 28 10 15 1026.7 1026.6 0.0
27/10:00am 21.4 18.8 13.3 60 4.6 ESE 19 26 10 14 1026.5 1026.4 0.0
27/09:30am 21.1 19.3 14.5 66 3.9 ESE 17 22 9 12 1026.2 1026.1 0.0
27/09:00am 19.3 21.6 17.6 90 1.0 SE 2 7 1 4 1025.9 1025.8 19.6
27/08:30am 18.0 19.4 17.4 96 0.4 WSW 6 7 3 4 1025.5 1025.4 19.6
27/08:00am 17.1 18.7 16.8 98 0.2 WNW 4 9 2 5 1025.2 1025.1 19.6
27/07:30am 16.8 17.3 16.5 98 0.2 WSW 9 11 5 6 1025.0 1024.9 19.6
27/07:00am 16.7 17.1 16.4 98 0.2 NW 9 11 5 6 1024.8 1024.7 19.6
27/06:30am 16.7 17.5 16.4 98 0.2 WSW 7 9 4 5 1024.5 1024.4 19.6
27/06:00am 16.3 17.2 16.0 98 0.2 WSW 6 7 3 4 1024.3 1024.2 19.6
27/05:30am 16.4 18.4 16.1 98 0.2 CALM 0 0 0 0 1024.0 1023.9 19.6
27/05:00am 16.5 18.5 16.0 97 0.3 CALM 0 0 0 0 1024.0 1023.9 19.6
27/04:30am 16.8 18.5 16.3 97 0.3 ESE 2 7 1 4 1024.1 1024.0 19.6
27/04:00am 16.8 17.2 16.3 97 0.3 N 9 13 5 7 1024.1 1024.0 19.6
27/03:30am 16.8 17.2 16.3 97 0.3 N 9 11 5 6 1024.2 1024.1 19.6
27/03:12am 16.9 17.4 16.6 98 0.2 N 9 13 5 7 1024.4 1024.3 19.4
27/03:00am 16.9 17.0 16.6 98 0.2 NE 11 17 6 9 1024.6 1024.5 19.2
27/02:41am 17.1 17.7 16.8 98 0.2 ESE 9 13 5 7 1024.8 1024.7 16.8
27/02:30am 16.7 17.6 16.5 99 0.1 S 7 11 4 6 1024.8 1024.7 16.8
27/02:00am 16.2 16.8 15.9 98 0.2 NW 7 9 4 5 1024.8 1024.7 16.8
27/01:30am 16.3 18.3 16.0 98 0.2 CALM 0 0 0 0 1024.9 1024.8 16.8
27/01:00am 16.5 18.2 16.2 98 0.2 W 2 7 1 4 1024.9 1024.8 16.8
27/12:30am 16.2 16.9 15.7 97 0.3 WNW 6 7 3 4 1025.1 1025.0 16.8
27/12:00am 16.3 16.9 15.8 97 0.3 WNW 7 9 4 5 1024.9 1024.8 16.6
 
Date/Time
EDT
Temp
°C
App
Temp
°C
Dew
Point
°C
Rel
Hum
%
Delta-T
°C
Wind Press
QNH
hPa
Press
MSL
hPa
Rain since
9am
mm
Dir  Spd
km/h
Gust
km/h
Spd
kts
Gust
kts
26/11:30pm 16.7 17.0 16.1 96 0.4 W 9 9 5 5 1025.1 1025.0 16.6
26/11:00pm 17.6 18.3 17.0 96 0.4 WNW 9 11 5 6 1025.2 1025.1 16.6
26/10:30pm 17.8 18.4 16.8 94 0.6 WSW 9 11 5 6 1025.4 1025.3 16.2
26/10:05pm 17.8 18.3 16.5 92 0.8 NE 9 15 5 8 1025.4 1025.3 15.8
26/10:00pm 17.8 17.5 16.5 92 0.8 ENE 13 19 7 10 1025.4 1025.3 15.6
26/09:44pm 17.9 18.1 16.8 93 0.7 E 11 17 6 9 1025.4 1025.3 14.4
26/09:33pm 17.9 17.0 16.9 94 0.6 SE 17 28 9 15 1025.4 1025.3 14.0
26/09:30pm 17.9 17.0 16.8 93 0.7 SE 17 28 9 15 1025.4 1025.3 13.8
26/09:00pm 17.5 18.1 16.9 96 0.4 SW 9 11 5 6 1025.1 1025.0 13.4

Latest Capital City Observations: Canberra | Sydney | Melbourne | Brisbane | Adelaide | Perth | Hobart | Darwin

Other formats

Comma delimited format used in spreadsheet applications
http://www.bom.gov.au/fwo/IDN60901/IDN60901.94776.axf

JavaScript Object Notation format (JSON) in row-major order
http://www.bom.gov.au/fwo/IDN60901/IDN60901.94776.json

Data quality

Most of these data are generated automatically and are frequently updated. Quality checks on data are not normally performed. It is possible for incorrect values to appear. Refer to information at About Latest Weather Observations and please check the disclaimer before using these data.